sensor_id;sensor_type;location;lat;lon;timestamp;P1;durP1;ratioP1;P2;durP2;ratioP2
57822;SDS011;43650;48.064;20.624;2023-03-31T00:00:13;30.45;;;15.85;;
57822;SDS011;43650;48.064;20.624;2023-03-31T00:01:15;32.17;;;16.60;;
57822;SDS011;43650;48.064;20.624;2023-03-31T00:02:15;67.13;;;17.10;;
57822;SDS011;43650;48.064;20.624;2023-03-31T00:03:16;34.23;;;18.13;;
57822;SDS011;43650;48.064;20.624;2023-03-31T00:04:20;30.75;;;15.35;;
57822;SDS011;43650;48.064;20.624;2023-03-31T00:05:23;87.37;;;19.40;;
57822;SDS011;43650;48.064;20.624;2023-03-31T00:06:24;152.52;;;23.98;;
57822;SDS011;43650;48.064;20.624;2023-03-31T00:07:24;44.63;;;18.07;;
57822;SDS011;43650;48.064;20.624;2023-03-31T00:08:25;32.63;;;16.37;;
57822;SDS011;43650;48.064;20.624;2023-03-31T00:09:28;101.15;;;19.52;;
57822;SDS011;43650;48.064;20.624;2023-03-31T00:10:32;136.85;;;23.98;;
57822;SDS011;43650;48.064;20.624;2023-03-31T00:11:34;53.00;;;17.12;;
57822;SDS011;43650;48.064;20.624;2023-03-31T00:12:34;124.63;;;20.63;;
57822;SDS011;43650;48.064;20.624;2023-03-31T00:13:35;130.77;;;22.10;;
57822;SDS011;43650;48.064;20.624;2023-03-31T00:14:35;57.17;;;18.10;;
57822;SDS011;43650;48.064;20.624;2023-03-31T00:15:36;32.50;;;15.67;;
57822;SDS011;43650;48.064;20.624;2023-03-31T00:16:36;140.73;;;23.33;;
57822;SDS011;43650;48.064;20.624;2023-03-31T00:17:38;38.22;;;16.02;;
57822;SDS011;43650;48.064;20.624;2023-03-31T00:18:38;83.82;;;20.55;;
57822;SDS011;43650;48.064;20.624;2023-03-31T00:19:46;68.18;;;17.55;;
57822;SDS011;43650;48.064;20.624;2023-03-31T00:20:48;72.82;;;18.73;;
57822;SDS011;43650;48.064;20.624;2023-03-31T00:21:52;108.63;;;24.40;;
57822;SDS011;43650;48.064;20.624;2023-03-31T00:22:53;54.08;;;22.73;;
57822;SDS011;43650;48.064;20.624;2023-03-31T00:23:58;51.53;;;23.05;;
57822;SDS011;43650;48.064;20.624;2023-03-31T00:25:00;37.13;;;17.25;;
57822;SDS011;43650;48.064;20.624;2023-03-31T00:26:00;39.97;;;17.63;;
57822;SDS011;43650;48.064;20.624;2023-03-31T00:27:01;71.70;;;19.53;;
57822;SDS011;43650;48.064;20.624;2023-03-31T00:28:02;122.53;;;21.77;;
57822;SDS011;43650;48.064;20.624;2023-03-31T00:29:04;51.50;;;15.87;;
57822;SDS011;43650;48.064;20.624;2023-03-31T00:30:05;75.35;;;18.27;;
57822;SDS011;43650;48.064;20.624;2023-03-31T00:31:06;92.65;;;18.50;;
57822;SDS011;43650;48.064;20.624;2023-03-31T00:32:07;102.77;;;19.80;;
57822;SDS011;43650;48.064;20.624;2023-03-31T00:33:07;83.90;;;18.17;;
57822;SDS011;43650;48.064;20.624;2023-03-31T00:34:08;31.13;;;15.00;;
57822;SDS011;43650;48.064;20.624;2023-03-31T00:35:09;35.37;;;16.77;;
57822;SDS011;43650;48.064;20.624;2023-03-31T00:36:09;31.48;;;15.30;;
57822;SDS011;43650;48.064;20.624;2023-03-31T00:37:10;31.37;;;15.03;;
57822;SDS011;43650;48.064;20.624;2023-03-31T00:38:15;31.15;;;14.90;;
57822;SDS011;43650;48.064;20.624;2023-03-31T00:39:16;25.40;;;14.87;;
57822;SDS011;43650;48.064;20.624;2023-03-31T00:40:18;32.60;;;14.13;;
57822;SDS011;43650;48.064;20.624;2023-03-31T00:41:18;28.67;;;14.80;;
57822;SDS011;43650;48.064;20.624;2023-03-31T00:42:19;29.50;;;15.40;;
57822;SDS011;43650;48.064;20.624;2023-03-31T00:44:28;27.58;;;13.90;;
57822;SDS011;43650;48.064;20.624;2023-03-31T00:45:29;30.77;;;13.85;;
57822;SDS011;43650;48.064;20.624;2023-03-31T00:46:35;35.13;;;16.85;;
57822;SDS011;43650;48.064;20.624;2023-03-31T00:47:53;43.05;;;18.55;;
57822;SDS011;43650;48.064;20.624;2023-03-31T00:48:56;42.53;;;18.48;;
57822;SDS011;43650;48.064;20.624;2023-03-31T00:49:57;42.33;;;19.98;;
57822;SDS011;43650;48.064;20.624;2023-03-31T00:50:58;43.25;;;20.85;;
57822;SDS011;43650;48.064;20.624;2023-03-31T00:52:01;39.58;;;19.12;;
57822;SDS011;43650;48.064;20.624;2023-03-31T00:53:08;44.00;;;20.45;;
57822;SDS011;43650;48.064;20.624;2023-03-31T00:54:11;42.13;;;19.37;;
57822;SDS011;43650;48.064;20.624;2023-03-31T00:55:13;32.67;;;18.07;;
57822;SDS011;43650;48.064;20.624;2023-03-31T00:56:15;39.53;;;16.25;;
57822;SDS011;43650;48.064;20.624;2023-03-31T00:57:16;41.63;;;19.02;;
57822;SDS011;43650;48.064;20.624;2023-03-31T00:58:17;31.97;;;15.80;;
57822;SDS011;43650;48.064;20.624;2023-03-31T00:59:19;31.45;;;16.00;;
57822;SDS011;43650;48.064;20.624;2023-03-31T01:00:19;32.10;;;15.18;;
57822;SDS011;43650;48.064;20.624;2023-03-31T01:01:22;30.30;;;14.15;;
57822;SDS011;43650;48.064;20.624;2023-03-31T01:02:23;32.15;;;15.27;;
57822;SDS011;43650;48.064;20.624;2023-03-31T01:03:27;27.77;;;13.05;;
57822;SDS011;43650;48.064;20.624;2023-03-31T01:04:30;24.60;;;12.68;;
57822;SDS011;43650;48.064;20.624;2023-03-31T01:05:33;25.17;;;11.90;;
57822;SDS011;43650;48.064;20.624;2023-03-31T01:06:37;28.25;;;12.77;;
57822;SDS011;43650;48.064;20.624;2023-03-31T01:07:49;25.55;;;12.30;;
57822;SDS011;43650;48.064;20.624;2023-03-31T01:09:51;25.48;;;11.45;;
57822;SDS011;43650;48.064;20.624;2023-03-31T01:10:55;26.17;;;11.02;;
57822;SDS011;43650;48.064;20.624;2023-03-31T01:12:00;28.58;;;11.88;;
57822;SDS011;43650;48.064;20.624;2023-03-31T01:13:05;24.37;;;13.18;;
57822;SDS011;43650;48.064;20.624;2023-03-31T01:14:06;26.40;;;12.75;;
57822;SDS011;43650;48.064;20.624;2023-03-31T01:15:07;24.87;;;13.63;;
57822;SDS011;43650;48.064;20.624;2023-03-31T01:17:08;28.35;;;12.27;;
57822;SDS011;43650;48.064;20.624;2023-03-31T01:18:09;32.23;;;13.97;;
57822;SDS011;43650;48.064;20.624;2023-03-31T01:19:24;30.55;;;13.05;;
57822;SDS011;43650;48.064;20.624;2023-03-31T01:20:56;29.23;;;12.40;;
57822;SDS011;43650;48.064;20.624;2023-03-31T01:23:49;19.62;;;11.60;;
57822;SDS011;43650;48.064;20.624;2023-03-31T01:34:46;24.80;;;10.88;;
57822;SDS011;43650;48.064;20.624;2023-03-31T01:39:27;20.50;;;10.82;;
57822;SDS011;43650;48.064;20.624;2023-03-31T01:44:23;20.60;;;11.55;;
57822;SDS011;43650;48.064;20.624;2023-03-31T01:47:26;19.77;;;11.35;;
57822;SDS011;43650;48.064;20.624;2023-03-31T01:50:01;18.20;;;10.48;;
57822;SDS011;43650;48.064;20.624;2023-03-31T01:51:06;20.83;;;9.70;;
57822;SDS011;43650;48.064;20.624;2023-03-31T01:52:25;15.07;;;9.32;;
57822;SDS011;43650;48.064;20.624;2023-03-31T01:56:46;14.95;;;8.35;;
57822;SDS011;43650;48.064;20.624;2023-03-31T01:57:57;20.60;;;9.00;;
57822;SDS011;43650;48.064;20.624;2023-03-31T01:59:01;22.02;;;10.00;;
57822;SDS011;43650;48.064;20.624;2023-03-31T02:00:08;16.83;;;8.48;;
57822;SDS011;43650;48.064;20.624;2023-03-31T02:01:20;13.55;;;8.70;;
57822;SDS011;43650;48.064;20.624;2023-03-31T02:02:28;16.90;;;8.98;;
57822;SDS011;43650;48.064;20.624;2023-03-31T02:03:36;16.65;;;9.18;;
57822;SDS011;43650;48.064;20.624;2023-03-31T02:04:45;18.48;;;8.90;;
57822;SDS011;43650;48.064;20.624;2023-03-31T02:05:50;17.50;;;8.45;;
57822;SDS011;43650;48.064;20.624;2023-03-31T02:06:54;16.58;;;9.43;;
57822;SDS011;43650;48.064;20.624;2023-03-31T02:08:05;16.65;;;9.55;;
57822;SDS011;43650;48.064;20.624;2023-03-31T02:09:11;17.73;;;8.82;;
57822;SDS011;43650;48.064;20.624;2023-03-31T02:10:14;18.73;;;9.70;;
57822;SDS011;43650;48.064;20.624;2023-03-31T02:11:15;17.83;;;9.70;;
57822;SDS011;43650;48.064;20.624;2023-03-31T02:12:16;17.00;;;8.25;;
57822;SDS011;43650;48.064;20.624;2023-03-31T02:13:19;18.42;;;10.18;;
57822;SDS011;43650;48.064;20.624;2023-03-31T02:14:22;15.73;;;9.02;;
57822;SDS011;43650;48.064;20.624;2023-03-31T02:15:26;21.02;;;7.93;;
57822;SDS011;43650;48.064;20.624;2023-03-31T02:16:29;17.95;;;9.80;;
57822;SDS011;43650;48.064;20.624;2023-03-31T02:17:32;15.20;;;8.98;;
57822;SDS011;43650;48.064;20.624;2023-03-31T02:18:33;16.17;;;9.40;;
57822;SDS011;43650;48.064;20.624;2023-03-31T02:19:37;21.23;;;10.60;;
57822;SDS011;43650;48.064;20.624;2023-03-31T02:20:39;18.87;;;10.25;;
57822;SDS011;43650;48.064;20.624;2023-03-31T02:21:41;25.60;;;10.98;;
57822;SDS011;43650;48.064;20.624;2023-03-31T02:22:42;15.43;;;9.63;;
57822;SDS011;43650;48.064;20.624;2023-03-31T02:23:46;21.92;;;9.32;;
57822;SDS011;43650;48.064;20.624;2023-03-31T02:24:47;17.67;;;9.93;;
57822;SDS011;43650;48.064;20.624;2023-03-31T02:25:50;18.98;;;10.23;;
57822;SDS011;43650;48.064;20.624;2023-03-31T02:28:07;19.30;;;10.32;;
57822;SDS011;43650;48.064;20.624;2023-03-31T02:29:11;17.23;;;8.25;;
57822;SDS011;43650;48.064;20.624;2023-03-31T02:30:11;18.90;;;9.10;;
57822;SDS011;43650;48.064;20.624;2023-03-31T02:31:17;17.73;;;9.27;;
57822;SDS011;43650;48.064;20.624;2023-03-31T02:32:22;16.00;;;8.50;;
57822;SDS011;43650;48.064;20.624;2023-03-31T02:33:26;19.58;;;8.70;;
57822;SDS011;43650;48.064;20.624;2023-03-31T02:34:27;19.65;;;9.68;;
57822;SDS011;43650;48.064;20.624;2023-03-31T02:35:27;15.80;;;8.97;;
57822;SDS011;43650;48.064;20.624;2023-03-31T02:36:28;16.83;;;8.23;;
57822;SDS011;43650;48.064;20.624;2023-03-31T02:37:29;16.45;;;9.35;;
57822;SDS011;43650;48.064;20.624;2023-03-31T02:38:31;18.48;;;10.15;;
57822;SDS011;43650;48.064;20.624;2023-03-31T02:39:35;21.90;;;10.00;;
57822;SDS011;43650;48.064;20.624;2023-03-31T02:40:37;17.58;;;10.70;;
57822;SDS011;43650;48.064;20.624;2023-03-31T02:41:38;19.43;;;10.07;;
57822;SDS011;43650;48.064;20.624;2023-03-31T02:42:38;17.80;;;10.27;;
57822;SDS011;43650;48.064;20.624;2023-03-31T02:43:39;16.98;;;10.95;;
57822;SDS011;43650;48.064;20.624;2023-03-31T02:44:40;19.87;;;10.13;;
57822;SDS011;43650;48.064;20.624;2023-03-31T02:46:44;16.65;;;9.45;;
57822;SDS011;43650;48.064;20.624;2023-03-31T02:47:44;19.17;;;10.05;;
57822;SDS011;43650;48.064;20.624;2023-03-31T02:48:48;19.57;;;10.37;;
57822;SDS011;43650;48.064;20.624;2023-03-31T02:49:52;23.20;;;10.98;;
57822;SDS011;43650;48.064;20.624;2023-03-31T02:58:10;44.28;;;19.20;;
57822;SDS011;43650;48.064;20.624;2023-03-31T03:00:35;24.95;;;13.07;;
57822;SDS011;43650;48.064;20.624;2023-03-31T03:01:52;33.47;;;16.13;;
57822;SDS011;43650;48.064;20.624;2023-03-31T03:05:40;36.13;;;18.33;;
57822;SDS011;43650;48.064;20.624;2023-03-31T03:09:26;36.47;;;17.17;;
57822;SDS011;43650;48.064;20.624;2023-03-31T03:12:21;34.28;;;14.10;;
57822;SDS011;43650;48.064;20.624;2023-03-31T03:13:30;24.55;;;12.43;;
57822;SDS011;43650;48.064;20.624;2023-03-31T03:14:43;24.30;;;12.77;;
57822;SDS011;43650;48.064;20.624;2023-03-31T03:15:52;25.20;;;12.00;;
57822;SDS011;43650;48.064;20.624;2023-03-31T03:17:04;24.77;;;11.93;;
57822;SDS011;43650;48.064;20.624;2023-03-31T03:18:09;21.45;;;11.10;;
57822;SDS011;43650;48.064;20.624;2023-03-31T03:19:16;21.35;;;11.23;;
57822;SDS011;43650;48.064;20.624;2023-03-31T03:20:19;26.10;;;11.80;;
57822;SDS011;43650;48.064;20.624;2023-03-31T03:22:20;23.27;;;11.95;;
57822;SDS011;43650;48.064;20.624;2023-03-31T03:23:21;20.62;;;11.55;;
57822;SDS011;43650;48.064;20.624;2023-03-31T03:24:21;23.17;;;11.77;;
57822;SDS011;43650;48.064;20.624;2023-03-31T03:25:22;23.97;;;12.67;;
57822;SDS011;43650;48.064;20.624;2023-03-31T03:26:23;23.55;;;11.90;;
57822;SDS011;43650;48.064;20.624;2023-03-31T03:27:26;25.30;;;12.00;;
57822;SDS011;43650;48.064;20.624;2023-03-31T03:28:27;24.93;;;13.37;;
57822;SDS011;43650;48.064;20.624;2023-03-31T03:29:27;20.40;;;11.57;;
57822;SDS011;43650;48.064;20.624;2023-03-31T03:30:28;23.20;;;12.57;;
57822;SDS011;43650;48.064;20.624;2023-03-31T03:31:28;23.17;;;12.30;;
57822;SDS011;43650;48.064;20.624;2023-03-31T03:32:30;29.42;;;12.27;;
57822;SDS011;43650;48.064;20.624;2023-03-31T03:33:30;23.27;;;12.30;;
57822;SDS011;43650;48.064;20.624;2023-03-31T03:34:31;25.10;;;12.17;;
57822;SDS011;43650;48.064;20.624;2023-03-31T03:35:32;20.73;;;11.57;;
57822;SDS011;43650;48.064;20.624;2023-03-31T03:36:32;24.25;;;11.05;;
57822;SDS011;43650;48.064;20.624;2023-03-31T03:37:33;26.77;;;13.00;;
57822;SDS011;43650;48.064;20.624;2023-03-31T03:38:33;24.10;;;13.40;;
57822;SDS011;43650;48.064;20.624;2023-03-31T03:39:34;24.57;;;13.40;;
57822;SDS011;43650;48.064;20.624;2023-03-31T03:40:34;21.70;;;11.00;;
57822;SDS011;43650;48.064;20.624;2023-03-31T03:41:35;25.03;;;13.13;;
57822;SDS011;43650;48.064;20.624;2023-03-31T03:42:35;24.13;;;11.97;;
57822;SDS011;43650;48.064;20.624;2023-03-31T03:43:37;26.25;;;13.15;;
57822;SDS011;43650;48.064;20.624;2023-03-31T03:44:37;21.63;;;11.03;;
57822;SDS011;43650;48.064;20.624;2023-03-31T03:45:38;21.67;;;12.23;;
57822;SDS011;43650;48.064;20.624;2023-03-31T03:46:38;22.07;;;13.03;;
57822;SDS011;43650;48.064;20.624;2023-03-31T03:47:39;27.13;;;12.53;;
57822;SDS011;43650;48.064;20.624;2023-03-31T03:48:39;29.83;;;16.20;;
57822;SDS011;43650;48.064;20.624;2023-03-31T03:49:39;25.30;;;13.93;;
57822;SDS011;43650;48.064;20.624;2023-03-31T03:50:40;23.63;;;14.53;;
57822;SDS011;43650;48.064;20.624;2023-03-31T03:51:40;25.50;;;13.43;;
57822;SDS011;43650;48.064;20.624;2023-03-31T03:52:41;25.90;;;12.23;;
57822;SDS011;43650;48.064;20.624;2023-03-31T03:53:41;20.17;;;12.17;;
57822;SDS011;43650;48.064;20.624;2023-03-31T03:54:42;19.15;;;11.50;;
57822;SDS011;43650;48.064;20.624;2023-03-31T03:55:42;22.63;;;13.23;;
57822;SDS011;43650;48.064;20.624;2023-03-31T03:56:44;29.67;;;14.82;;
57822;SDS011;43650;48.064;20.624;2023-03-31T03:57:44;30.00;;;16.23;;
57822;SDS011;43650;48.064;20.624;2023-03-31T03:58:44;47.60;;;20.53;;
57822;SDS011;43650;48.064;20.624;2023-03-31T03:59:45;27.33;;;14.27;;
57822;SDS011;43650;48.064;20.624;2023-03-31T04:00:45;24.47;;;12.53;;
57822;SDS011;43650;48.064;20.624;2023-03-31T04:01:46;30.93;;;13.47;;
57822;SDS011;43650;48.064;20.624;2023-03-31T04:02:46;22.10;;;12.90;;
57822;SDS011;43650;48.064;20.624;2023-03-31T04:03:47;20.47;;;11.67;;
57822;SDS011;43650;48.064;20.624;2023-03-31T04:04:47;23.63;;;13.07;;
57822;SDS011;43650;48.064;20.624;2023-03-31T04:05:47;22.30;;;12.93;;
57822;SDS011;43650;48.064;20.624;2023-03-31T04:06:49;18.17;;;10.63;;
57822;SDS011;43650;48.064;20.624;2023-03-31T04:07:49;18.03;;;10.90;;
57822;SDS011;43650;48.064;20.624;2023-03-31T04:08:49;25.03;;;12.30;;
57822;SDS011;43650;48.064;20.624;2023-03-31T04:09:50;26.17;;;13.07;;
57822;SDS011;43650;48.064;20.624;2023-03-31T04:10:50;25.50;;;12.33;;
57822;SDS011;43650;48.064;20.624;2023-03-31T04:11:51;19.70;;;11.27;;
57822;SDS011;43650;48.064;20.624;2023-03-31T04:12:51;25.93;;;12.03;;
57822;SDS011;43650;48.064;20.624;2023-03-31T04:13:51;28.33;;;14.00;;
57822;SDS011;43650;48.064;20.624;2023-03-31T04:14:52;28.17;;;14.63;;
57822;SDS011;43650;48.064;20.624;2023-03-31T04:15:52;26.67;;;14.13;;
57822;SDS011;43650;48.064;20.624;2023-03-31T04:16:53;22.43;;;12.10;;
57822;SDS011;43650;48.064;20.624;2023-03-31T04:17:55;25.40;;;13.68;;
57822;SDS011;43650;48.064;20.624;2023-03-31T04:18:56;27.67;;;13.62;;
57822;SDS011;43650;48.064;20.624;2023-03-31T04:19:58;23.62;;;12.68;;
57822;SDS011;43650;48.064;20.624;2023-03-31T04:21:00;27.90;;;13.88;;
57822;SDS011;43650;48.064;20.624;2023-03-31T04:22:04;18.35;;;11.25;;
57822;SDS011;43650;48.064;20.624;2023-03-31T04:23:04;21.77;;;12.33;;
57822;SDS011;43650;48.064;20.624;2023-03-31T04:24:08;21.12;;;13.10;;
57822;SDS011;43650;48.064;20.624;2023-03-31T04:25:11;23.98;;;12.37;;
57822;SDS011;43650;48.064;20.624;2023-03-31T04:26:18;20.83;;;11.20;;
57822;SDS011;43650;48.064;20.624;2023-03-31T04:27:29;22.90;;;11.45;;
57822;SDS011;43650;48.064;20.624;2023-03-31T04:28:31;23.48;;;12.05;;
57822;SDS011;43650;48.064;20.624;2023-03-31T04:29:33;24.73;;;11.43;;
57822;SDS011;43650;48.064;20.624;2023-03-31T04:30:36;24.92;;;11.43;;
57822;SDS011;43650;48.064;20.624;2023-03-31T04:31:39;24.60;;;12.07;;
57822;SDS011;43650;48.064;20.624;2023-03-31T04:32:41;25.52;;;12.55;;
57822;SDS011;43650;48.064;20.624;2023-03-31T04:33:42;26.23;;;12.17;;
57822;SDS011;43650;48.064;20.624;2023-03-31T04:34:45;20.98;;;11.00;;
57822;SDS011;43650;48.064;20.624;2023-03-31T04:35:45;26.05;;;12.13;;
57822;SDS011;43650;48.064;20.624;2023-03-31T04:36:49;21.30;;;11.52;;
57822;SDS011;43650;48.064;20.624;2023-03-31T04:37:50;23.73;;;13.67;;
57822;SDS011;43650;48.064;20.624;2023-03-31T04:38:57;21.08;;;11.82;;
57822;SDS011;43650;48.064;20.624;2023-03-31T04:39:58;32.25;;;13.13;;
57822;SDS011;43650;48.064;20.624;2023-03-31T04:41:02;23.60;;;12.37;;
57822;SDS011;43650;48.064;20.624;2023-03-31T04:42:03;22.47;;;11.70;;
57822;SDS011;43650;48.064;20.624;2023-03-31T04:43:03;21.87;;;12.13;;
57822;SDS011;43650;48.064;20.624;2023-03-31T04:44:04;23.30;;;12.35;;
57822;SDS011;43650;48.064;20.624;2023-03-31T04:45:05;27.80;;;13.65;;
57822;SDS011;43650;48.064;20.624;2023-03-31T04:46:06;24.10;;;12.68;;
57822;SDS011;43650;48.064;20.624;2023-03-31T04:47:06;25.20;;;12.15;;
57822;SDS011;43650;48.064;20.624;2023-03-31T04:48:07;23.07;;;12.10;;
57822;SDS011;43650;48.064;20.624;2023-03-31T04:49:07;23.25;;;13.27;;
57822;SDS011;43650;48.064;20.624;2023-03-31T04:50:08;25.20;;;14.13;;
57822;SDS011;43650;48.064;20.624;2023-03-31T04:51:12;24.02;;;12.82;;
57822;SDS011;43650;48.064;20.624;2023-03-31T04:52:14;22.92;;;11.95;;
57822;SDS011;43650;48.064;20.624;2023-03-31T04:53:15;33.63;;;15.00;;
57822;SDS011;43650;48.064;20.624;2023-03-31T04:54:15;24.37;;;12.10;;
57822;SDS011;43650;48.064;20.624;2023-03-31T04:55:16;22.57;;;12.87;;
57822;SDS011;43650;48.064;20.624;2023-03-31T04:56:16;25.70;;;12.57;;
57822;SDS011;43650;48.064;20.624;2023-03-31T04:57:17;19.90;;;11.10;;
57822;SDS011;43650;48.064;20.624;2023-03-31T04:58:17;23.23;;;11.20;;
57822;SDS011;43650;48.064;20.624;2023-03-31T04:59:18;28.87;;;12.52;;
57822;SDS011;43650;48.064;20.624;2023-03-31T05:00:19;24.27;;;12.47;;
57822;SDS011;43650;48.064;20.624;2023-03-31T05:01:20;20.77;;;12.23;;
57822;SDS011;43650;48.064;20.624;2023-03-31T05:02:20;24.77;;;13.23;;
57822;SDS011;43650;48.064;20.624;2023-03-31T05:03:23;22.95;;;11.93;;
57822;SDS011;43650;48.064;20.624;2023-03-31T05:04:24;29.80;;;11.30;;
57822;SDS011;43650;48.064;20.624;2023-03-31T05:05:24;19.47;;;11.23;;
57822;SDS011;43650;48.064;20.624;2023-03-31T05:06:25;19.13;;;11.17;;
57822;SDS011;43650;48.064;20.624;2023-03-31T05:07:25;20.17;;;11.37;;
57822;SDS011;43650;48.064;20.624;2023-03-31T05:08:26;22.80;;;11.03;;
57822;SDS011;43650;48.064;20.624;2023-03-31T05:09:26;27.30;;;12.43;;
57822;SDS011;43650;48.064;20.624;2023-03-31T05:10:27;26.43;;;12.57;;
57822;SDS011;43650;48.064;20.624;2023-03-31T05:11:27;22.03;;;10.57;;
57822;SDS011;43650;48.064;20.624;2023-03-31T05:12:27;21.87;;;11.90;;
57822;SDS011;43650;48.064;20.624;2023-03-31T05:13:28;31.63;;;13.60;;
57822;SDS011;43650;48.064;20.624;2023-03-31T05:14:28;71.93;;;27.40;;
57822;SDS011;43650;48.064;20.624;2023-03-31T05:15:29;36.47;;;17.60;;
57822;SDS011;43650;48.064;20.624;2023-03-31T05:16:29;25.50;;;13.80;;
57822;SDS011;43650;48.064;20.624;2023-03-31T05:17:30;24.43;;;12.23;;
57822;SDS011;43650;48.064;20.624;2023-03-31T05:18:32;21.58;;;10.73;;
57822;SDS011;43650;48.064;20.624;2023-03-31T05:19:32;18.83;;;9.80;;
57822;SDS011;43650;48.064;20.624;2023-03-31T05:20:33;19.90;;;9.63;;
57822;SDS011;43650;48.064;20.624;2023-03-31T05:21:33;18.17;;;9.07;;
57822;SDS011;43650;48.064;20.624;2023-03-31T05:22:34;17.17;;;9.33;;
57822;SDS011;43650;48.064;20.624;2023-03-31T05:23:35;14.60;;;8.25;;
57822;SDS011;43650;48.064;20.624;2023-03-31T05:24:36;18.20;;;8.77;;
57822;SDS011;43650;48.064;20.624;2023-03-31T05:25:36;16.13;;;8.33;;
57822;SDS011;43650;48.064;20.624;2023-03-31T05:26:36;15.53;;;9.40;;
57822;SDS011;43650;48.064;20.624;2023-03-31T05:27:37;14.13;;;8.47;;
57822;SDS011;43650;48.064;20.624;2023-03-31T05:28:37;17.30;;;8.10;;
57822;SDS011;43650;48.064;20.624;2023-03-31T05:29:38;14.18;;;8.27;;
57822;SDS011;43650;48.064;20.624;2023-03-31T05:30:39;12.73;;;7.87;;
57822;SDS011;43650;48.064;20.624;2023-03-31T05:31:39;14.63;;;7.90;;
57822;SDS011;43650;48.064;20.624;2023-03-31T05:32:40;18.47;;;8.33;;
57822;SDS011;43650;48.064;20.624;2023-03-31T05:33:41;14.60;;;8.05;;
57822;SDS011;43650;48.064;20.624;2023-03-31T05:34:41;13.47;;;8.10;;
57822;SDS011;43650;48.064;20.624;2023-03-31T05:35:43;12.98;;;8.07;;
57822;SDS011;43650;48.064;20.624;2023-03-31T05:36:43;14.05;;;7.15;;
57822;SDS011;43650;48.064;20.624;2023-03-31T05:37:44;12.93;;;7.50;;
57822;SDS011;43650;48.064;20.624;2023-03-31T05:38:44;12.63;;;6.97;;
57822;SDS011;43650;48.064;20.624;2023-03-31T05:39:46;13.15;;;6.80;;
57822;SDS011;43650;48.064;20.624;2023-03-31T05:40:47;16.03;;;7.00;;
57822;SDS011;43650;48.064;20.624;2023-03-31T05:41:47;24.23;;;13.85;;
57822;SDS011;43650;48.064;20.624;2023-03-31T05:42:48;22.33;;;10.63;;
57822;SDS011;43650;48.064;20.624;2023-03-31T05:43:48;13.13;;;6.50;;
57822;SDS011;43650;48.064;20.624;2023-03-31T05:44:49;13.00;;;6.83;;
57822;SDS011;43650;48.064;20.624;2023-03-31T05:45:49;13.30;;;6.70;;
57822;SDS011;43650;48.064;20.624;2023-03-31T05:46:49;10.27;;;6.13;;
57822;SDS011;43650;48.064;20.624;2023-03-31T05:47:50;12.77;;;7.13;;
57822;SDS011;43650;48.064;20.624;2023-03-31T05:48:51;13.98;;;7.70;;
57822;SDS011;43650;48.064;20.624;2023-03-31T05:49:52;9.70;;;6.07;;
57822;SDS011;43650;48.064;20.624;2023-03-31T05:50:58;16.07;;;7.83;;
57822;SDS011;43650;48.064;20.624;2023-03-31T05:51:59;13.80;;;7.37;;
57822;SDS011;43650;48.064;20.624;2023-03-31T05:53:00;15.23;;;8.47;;
57822;SDS011;43650;48.064;20.624;2023-03-31T05:54:00;14.77;;;8.30;;
57822;SDS011;43650;48.064;20.624;2023-03-31T05:55:01;19.23;;;11.03;;
57822;SDS011;43650;48.064;20.624;2023-03-31T05:56:03;15.48;;;9.93;;
57822;SDS011;43650;48.064;20.624;2023-03-31T05:57:05;15.13;;;7.47;;
57822;SDS011;43650;48.064;20.624;2023-03-31T05:58:06;15.43;;;7.37;;
57822;SDS011;43650;48.064;20.624;2023-03-31T05:59:08;11.85;;;6.90;;
57822;SDS011;43650;48.064;20.624;2023-03-31T06:00:09;14.97;;;6.43;;
57822;SDS011;43650;48.064;20.624;2023-03-31T06:01:11;12.07;;;7.10;;
57822;SDS011;43650;48.064;20.624;2023-03-31T06:02:13;9.57;;;6.05;;
57822;SDS011;43650;48.064;20.624;2023-03-31T06:03:13;15.17;;;9.33;;
57822;SDS011;43650;48.064;20.624;2023-03-31T06:04:14;11.57;;;8.37;;
57822;SDS011;43650;48.064;20.624;2023-03-31T06:05:14;12.17;;;7.20;;
57822;SDS011;43650;48.064;20.624;2023-03-31T06:06:15;9.73;;;6.47;;
57822;SDS011;43650;48.064;20.624;2023-03-31T06:07:15;10.27;;;5.60;;
57822;SDS011;43650;48.064;20.624;2023-03-31T06:08:16;10.38;;;5.62;;
57822;SDS011;43650;48.064;20.624;2023-03-31T06:09:17;10.37;;;5.97;;
57822;SDS011;43650;48.064;20.624;2023-03-31T06:10:17;14.00;;;7.20;;
57822;SDS011;43650;48.064;20.624;2023-03-31T06:11:19;13.27;;;5.95;;
57822;SDS011;43650;48.064;20.624;2023-03-31T06:13:20;9.48;;;5.22;;
57822;SDS011;43650;48.064;20.624;2023-03-31T06:14:21;12.37;;;7.37;;
57822;SDS011;43650;48.064;20.624;2023-03-31T06:15:21;9.20;;;6.33;;
57822;SDS011;43650;48.064;20.624;2023-03-31T06:16:22;10.87;;;5.90;;
57822;SDS011;43650;48.064;20.624;2023-03-31T06:17:22;13.90;;;6.50;;
57822;SDS011;43650;48.064;20.624;2023-03-31T06:18:23;17.97;;;7.13;;
57822;SDS011;43650;48.064;20.624;2023-03-31T06:19:23;12.98;;;6.25;;
57822;SDS011;43650;48.064;20.624;2023-03-31T06:20:24;12.13;;;6.13;;
57822;SDS011;43650;48.064;20.624;2023-03-31T06:21:24;10.90;;;5.10;;
57822;SDS011;43650;48.064;20.624;2023-03-31T06:22:25;9.63;;;5.83;;
57822;SDS011;43650;48.064;20.624;2023-03-31T06:23:25;11.47;;;7.10;;
57822;SDS011;43650;48.064;20.624;2023-03-31T06:24:26;10.48;;;6.50;;
57822;SDS011;43650;48.064;20.624;2023-03-31T06:25:26;14.67;;;7.03;;
57822;SDS011;43650;48.064;20.624;2023-03-31T06:26:27;14.63;;;7.25;;
57822;SDS011;43650;48.064;20.624;2023-03-31T06:27:27;26.20;;;6.53;;
57822;SDS011;43650;48.064;20.624;2023-03-31T06:28:28;13.60;;;6.30;;
57822;SDS011;43650;48.064;20.624;2023-03-31T06:29:29;9.18;;;5.37;;
57822;SDS011;43650;48.064;20.624;2023-03-31T06:30:29;11.57;;;5.13;;
57822;SDS011;43650;48.064;20.624;2023-03-31T06:31:30;11.40;;;5.63;;
57822;SDS011;43650;48.064;20.624;2023-03-31T06:32:31;11.38;;;5.75;;
57822;SDS011;43650;48.064;20.624;2023-03-31T06:33:31;11.10;;;5.87;;
57822;SDS011;43650;48.064;20.624;2023-03-31T06:34:32;10.90;;;5.55;;
57822;SDS011;43650;48.064;20.624;2023-03-31T06:35:36;9.43;;;5.40;;
57822;SDS011;43650;48.064;20.624;2023-03-31T06:36:37;9.48;;;4.95;;
57822;SDS011;43650;48.064;20.624;2023-03-31T06:37:37;11.63;;;4.90;;
57822;SDS011;43650;48.064;20.624;2023-03-31T06:38:37;8.23;;;4.10;;
57822;SDS011;43650;48.064;20.624;2023-03-31T06:39:38;7.33;;;4.33;;
57822;SDS011;43650;48.064;20.624;2023-03-31T06:40:38;6.80;;;3.80;;
57822;SDS011;43650;48.064;20.624;2023-03-31T06:41:39;7.83;;;4.13;;
57822;SDS011;43650;48.064;20.624;2023-03-31T06:42:39;16.53;;;8.10;;
57822;SDS011;43650;48.064;20.624;2023-03-31T06:43:40;10.37;;;5.20;;
57822;SDS011;43650;48.064;20.624;2023-03-31T06:44:40;9.73;;;4.62;;
57822;SDS011;43650;48.064;20.624;2023-03-31T06:45:41;6.93;;;4.03;;
57822;SDS011;43650;48.064;20.624;2023-03-31T06:46:41;12.57;;;7.17;;
57822;SDS011;43650;48.064;20.624;2023-03-31T06:47:42;8.20;;;6.50;;
57822;SDS011;43650;48.064;20.624;2023-03-31T06:48:42;7.73;;;5.53;;